Terminal Aerodrome Forecast
Issued by NWS State College, PA

Home | Current Version | Previous Version | Text Only | Print | Product List | Glossary On
Versions: 1 2 3 4 5 6 7 8 9 10 11 12 13 14 15 16 17 18 19 20 21 22 23 24 25 26 27 28 29 30 31 32 33 34 35 36 37 38 39 40 41 42 43 44 45 46 47 48
043
FTUS41 KCTP 231756
TAFIPT
TAF
KIPT 231756Z 2318/2418 VRB05KT P6SM SKC
     FM231900 14007KT P6SM SCT250
     FM240900 11004KT P6SM BKN080
     FM241500 11010G17KT P6SM -RA OVC040
     FM241700 11010G17KT P6SM -RA OVC030=

USA.gov is the U.S. government's official web portal to all federal, state and local government web resources and services.